createdAt,value
2022-11-22T00:03:25.005Z,10.60
2022-11-22T00:08:27.523Z,10.60
2022-11-22T00:13:29.732Z,10.50
2022-11-22T00:18:31.943Z,10.40
2022-11-22T00:23:34.758Z,10.40
2022-11-22T00:28:36.977Z,10.40
2022-11-22T00:33:39.142Z,10.30
2022-11-22T00:38:41.349Z,10.20
2022-11-22T00:43:43.533Z,10.20
2022-11-22T00:48:45.777Z,10.20
2022-11-22T00:53:47.985Z,10.10
2022-11-22T00:58:50.332Z,10.10
2022-11-22T01:03:52.594Z,10.10
2022-11-22T01:08:55.074Z,10.00
2022-11-22T01:13:57.329Z,10.00
2022-11-22T01:18:59.481Z,10.00
2022-11-22T01:24:01.696Z,10.00
2022-11-22T01:29:04.196Z,10.00
2022-11-22T01:34:06.488Z,10.00
2022-11-22T01:39:08.740Z,10.00
2022-11-22T01:50:01.954Z,10.10
2022-11-22T01:55:11.154Z,10.10
2022-11-22T02:00:17.000Z,10.20
2022-11-22T02:05:24.644Z,10.20
2022-11-22T02:10:29.209Z,10.20
2022-11-22T02:15:31.370Z,10.20
2022-11-22T02:20:33.658Z,10.20
2022-11-22T02:30:47.026Z,10.10
2022-11-22T02:35:49.852Z,10.00
2022-11-22T02:41:00.621Z,10.00
2022-11-22T02:46:06.148Z,10.10
2022-11-22T02:51:08.709Z,10.10
2022-11-22T02:56:11.112Z,10.00
2022-11-22T03:01:13.839Z,10.00
2022-11-22T03:06:16.171Z,10.00
2022-11-22T03:11:18.461Z,10.00
2022-11-22T03:16:20.850Z,10.00
2022-11-22T03:21:23.060Z,10.00
2022-11-22T03:26:25.398Z,10.00
2022-11-22T03:31:27.720Z,10.00
2022-11-22T03:36:29.997Z,10.00
2022-11-22T03:41:32.236Z,10.00
2022-11-22T03:46:34.749Z,10.00
2022-11-22T03:51:36.953Z,10.00
2022-11-22T03:56:39.123Z,10.00
2022-11-22T04:01:41.499Z,9.80
2022-11-22T04:06:43.901Z,9.70
2022-11-22T04:11:46.085Z,9.40
2022-11-22T04:16:48.307Z,9.50
2022-11-22T04:21:50.478Z,9.60
2022-11-22T04:26:53.319Z,9.60
2022-11-22T04:32:15.694Z,9.70
2022-11-22T04:37:17.907Z,9.60
2022-11-22T04:42:40.028Z,9.60
2022-11-22T04:48:02.306Z,9.60
2022-11-22T04:53:04.710Z,9.50
2022-11-22T04:58:07.232Z,9.60
2022-11-22T05:03:09.445Z,9.60
2022-11-22T05:08:13.078Z,9.70
2022-11-22T05:13:15.833Z,9.70
2022-11-22T05:18:19.564Z,9.70
2022-11-22T05:23:43.057Z,9.60
2022-11-22T05:28:45.335Z,9.70
2022-11-22T05:33:47.569Z,9.70
2022-11-22T05:38:50.164Z,9.70
2022-11-22T05:43:56.009Z,9.70
2022-11-22T05:48:59.034Z,9.60
2022-11-22T05:54:01.210Z,9.60
2022-11-22T05:59:03.659Z,9.60
2022-11-22T06:04:06.447Z,9.60
2022-11-22T06:09:08.717Z,9.60
2022-11-22T06:14:10.934Z,9.60
2022-11-22T06:19:13.353Z,9.50
2022-11-22T06:24:15.580Z,9.60
2022-11-22T06:29:17.811Z,9.70
2022-11-22T06:34:20.089Z,9.70
2022-11-22T06:39:22.317Z,9.80
2022-11-22T06:44:24.543Z,9.80
2022-11-22T06:49:27.138Z,9.80
2022-11-22T06:54:29.751Z,9.90
2022-11-22T06:59:32.214Z,10.00
2022-11-22T07:04:34.977Z,10.10
2022-11-22T07:09:38.411Z,10.20
2022-11-22T07:14:40.592Z,10.30
2022-11-22T07:19:42.802Z,11.50
2022-11-22T07:24:45.013Z,13.10
2022-11-22T07:29:47.234Z,15.10
2022-11-22T07:34:49.393Z,16.50
2022-11-22T07:39:51.640Z,17.90
2022-11-22T07:44:53.973Z,18.70
2022-11-22T07:49:56.168Z,19.50
2022-11-22T07:54:58.445Z,20.20
2022-11-22T08:00:01.002Z,21.00
2022-11-22T08:05:07.815Z,21.20
2022-11-22T08:10:10.282Z,21.50
2022-11-22T08:15:15.226Z,22.00
2022-11-22T08:20:17.535Z,22.50
2022-11-22T08:25:19.948Z,22.90
2022-11-22T08:30:22.206Z,23.30
2022-11-22T08:35:24.462Z,23.70
2022-11-22T08:40:26.680Z,24.20
2022-11-22T08:45:28.928Z,23.90
2022-11-22T08:50:31.128Z,22.60
2022-11-22T08:55:33.352Z,21.00
2022-11-22T09:00:35.573Z,19.50
2022-11-22T09:11:03.772Z,17.00
2022-11-22T09:16:09.551Z,16.20
2022-11-22T09:21:15.931Z,15.60
2022-11-22T09:26:22.261Z,15.10
2022-11-22T09:31:25.079Z,14.70
2022-11-22T09:36:27.361Z,14.40
2022-11-22T09:52:33.230Z,13.60
2022-11-22T09:57:46.402Z,13.40
2022-11-22T10:03:00.622Z,13.50
2022-11-22T10:08:18.923Z,13.40
2022-11-22T10:13:31.300Z,13.10
2022-11-22T10:18:56.806Z,13.00
2022-11-22T10:23:59.208Z,12.60
2022-11-22T10:45:17.133Z,12.90
2022-11-22T10:50:59.135Z,13.00
2022-11-22T11:06:56.808Z,12.80
2022-11-22T11:11:57.273Z,12.70
2022-11-22T11:16:59.540Z,13.00
2022-11-22T11:22:13.285Z,12.80
2022-11-22T11:27:18.402Z,13.20
2022-11-22T11:32:21.134Z,12.90
2022-11-22T11:37:25.430Z,13.10
2022-11-22T11:42:30.415Z,13.00
2022-11-22T11:47:33.589Z,13.10
2022-11-22T11:52:35.651Z,13.20
2022-11-22T11:57:37.786Z,13.20
2022-11-22T12:02:42.136Z,13.40
2022-11-22T12:07:45.704Z,13.60
2022-11-22T12:12:51.092Z,13.60
2022-11-22T12:17:57.308Z,13.50
2022-11-22T12:28:16.941Z,13.30
2022-11-22T12:33:23.950Z,13.70
2022-11-22T12:38:31.993Z,13.40
2022-11-22T12:43:45.391Z,13.40
2022-11-22T12:54:05.963Z,13.60
2022-11-22T13:04:27.594Z,13.60
2022-11-22T13:09:34.166Z,13.10
2022-11-22T13:20:05.057Z,12.70
2022-11-22T13:30:28.014Z,12.40
2022-11-22T13:35:33.990Z,12.20
2022-11-22T13:40:42.837Z,12.10
2022-11-22T13:51:00.016Z,12.10
2022-11-22T14:06:49.893Z,11.30
2022-11-22T14:12:26.068Z,11.30
2022-11-22T14:18:08.021Z,11.30
2022-11-22T14:29:01.460Z,11.30
2022-11-22T14:34:24.961Z,11.10
2022-11-22T14:44:59.249Z,10.90
2022-11-22T14:50:05.060Z,10.80
2022-11-22T14:55:16.741Z,10.80
2022-11-22T15:00:23.453Z,10.80
2022-11-22T15:59:46.997Z,10.60
2022-11-22T16:06:05.325Z,10.50
2022-11-22T16:15:36.584Z,10.70
2022-11-22T16:20:42.754Z,10.70
2022-11-22T16:25:49.177Z,10.80
2022-11-22T16:30:55.364Z,10.70
2022-11-22T16:36:00.147Z,10.70
2022-11-22T16:41:02.641Z,10.80
2022-11-22T16:46:05.167Z,10.70
2022-11-22T16:56:25.710Z,10.80
2022-11-22T17:01:33.367Z,11.00
2022-11-22T17:06:35.657Z,11.20
2022-11-22T17:11:37.945Z,11.10
2022-11-22T17:16:40.198Z,11.10
2022-11-22T17:21:44.001Z,11.10
2022-11-22T17:26:46.450Z,11.20
2022-11-22T17:31:49.741Z,11.20
2022-11-22T17:36:52.001Z,11.20
2022-11-22T17:41:54.190Z,11.10
2022-11-22T17:46:56.345Z,11.00
2022-11-22T17:51:58.601Z,10.80
2022-11-22T17:57:00.821Z,10.20
2022-11-22T18:02:03.111Z,10.20
2022-11-22T18:07:05.863Z,10.00
2022-11-22T18:12:08.129Z,10.00
2022-11-22T18:17:10.550Z,10.20
2022-11-22T18:22:12.779Z,10.10
2022-11-22T18:27:15.137Z,10.40
2022-11-22T18:32:17.777Z,10.70
2022-11-22T18:37:20.025Z,10.60
2022-11-22T18:42:23.525Z,10.50
2022-11-22T18:47:25.780Z,10.30
2022-11-22T18:52:27.959Z,10.60
2022-11-22T19:11:36.818Z,10.90
2022-11-22T19:16:39.859Z,11.50
2022-11-22T19:21:42.010Z,11.40
2022-11-22T19:26:44.365Z,11.30
2022-11-22T19:31:47.086Z,11.50
2022-11-22T19:36:49.257Z,11.40
2022-11-22T19:41:51.485Z,11.30
2022-11-22T19:46:53.651Z,11.30
2022-11-22T19:51:55.858Z,11.40
2022-11-22T19:56:58.005Z,11.60
2022-11-22T20:02:00.136Z,11.40
2022-11-22T20:07:03.468Z,11.50
2022-11-22T20:12:05.761Z,11.50
2022-11-22T20:17:08.108Z,11.60
2022-11-22T20:22:10.804Z,11.50
2022-11-22T20:27:14.028Z,11.60
2022-11-22T20:32:16.195Z,11.70
2022-11-22T20:37:18.354Z,11.70
2022-11-22T20:42:35.919Z,11.80
2022-11-22T20:47:38.121Z,11.70
2022-11-22T20:52:40.358Z,11.80
2022-11-22T20:57:42.558Z,12.00
2022-11-22T21:02:44.697Z,12.00
2022-11-22T21:07:46.905Z,11.80
2022-11-22T21:12:49.111Z,12.00
2022-11-22T21:18:23.142Z,11.80
2022-11-22T21:23:13.449Z,11.90
2022-11-22T21:28:15.961Z,11.80
2022-11-22T21:33:18.114Z,11.80
2022-11-22T21:38:28.175Z,11.70
2022-11-22T21:43:33.098Z,11.60
2022-11-22T21:48:35.229Z,11.70
2022-11-22T21:53:37.354Z,11.80
2022-11-22T21:58:39.516Z,11.80
2022-11-22T22:03:41.732Z,11.70
2022-11-22T22:08:43.873Z,11.70
2022-11-22T22:13:46.238Z,11.80
2022-11-22T22:18:48.690Z,11.60
2022-11-22T22:23:50.988Z,11.70
2022-11-22T22:28:53.463Z,11.60
2022-11-22T22:33:57.187Z,11.80
2022-11-22T22:38:59.300Z,11.80
2022-11-22T22:44:01.519Z,11.50
2022-11-22T22:49:03.717Z,11.80
2022-11-22T22:54:05.904Z,11.70
2022-11-22T22:59:08.280Z,11.80
2022-11-22T23:04:10.699Z,11.80
2022-11-22T23:09:13.061Z,12.00
2022-11-22T23:14:17.950Z,11.90
2022-11-22T23:19:20.444Z,11.90
2022-11-22T23:24:23.217Z,11.90
2022-11-22T23:29:25.397Z,12.10
2022-11-22T23:34:27.535Z,11.90
2022-11-22T23:39:30.127Z,12.30
2022-11-22T23:44:32.489Z,12.30
2022-11-22T23:49:34.622Z,12.30
2022-11-22T23:54:36.851Z,12.30
2022-11-22T23:59:39.195Z,12.40
